Langsund — LLPM — position and weather

sailwx.info

Track history (hours):
 
Tides and Currents Weather Stations Pressure Air Temp Water Temp Dewpoint Dewpoint Depression Visibility Wind Speed Wind Dir Waves Ship Positions

Langsund

Last reported at 2018-Jun-24 15:29 UTC. Time now 2018-Jun-25 05:38 UTC.
Position N 62°29' E 006°05'.

Length 44 m; draft 4.8 m.

Type: . MMSI: 258476000.

Date/timePositionNaut miles runAvg speedWind from/ knotsBaromVisibWave heightAir tempDewpointWater temp
2018-Jun-24 15:29N 62°29' E 006°05'510.4
2018-Jun-24 15:00N 62°33' E 006°10'910.8
2018-Jun-24 14:13N 62°39' E 006°24'411.3
2018-Jun-24 13:51N 62°42' E 006°29'411.1
2018-Jun-24 13:30N 62°46' E 006°34'510.8
2018-Jun-24 13:00N 62°50' E 006°42'2 5.0
2018-Jun-24 12:30N 62°51' E 006°47'1 2.5
2018-Jun-24 12:00N 62°50' E 006°44'5 9.9
2018-Jun-24 11:27N 62°46' E 006°37'4 1.5
2018-Jun-24 08:46N 62°42' E 006°39'310.1
2018-Jun-24 08:30N 62°45' E 006°39'611.3
2018-Jun-24 08:00N 62°50' E 006°45'1 2.6
2018-Jun-24 07:27N 62°51' E 006°47'2 4.3
2018-Jun-24 07:00N 62°50' E 006°43'5 9.5
2018-Jun-24 06:30N 62°46' E 006°37'  
2018-Jun-21 10:36N 62°47' E 006°57'1 8.6
2018-Jun-21 10:30N 62°47' E 006°58'5 9.1
2018-Jun-21 09:59N 62°52' E 006°55'4 8.6
2018-Jun-21 09:31N 62°51' E 006°47'0 0.1
2018-Jun-21 08:59N 62°51' E 006°47'12 8.2
2018-Jun-21 07:28N 62°40' E 006°32'10 2.0
2018-Jun-21 02:18N 62°35' E 006°13'411.0
2018-Jun-21 01:55N 62°31' E 006°09'2 5.8
2018-Jun-21 01:30N 62°28' E 006°09'0 0.0
2018-Jun-21 01:00N 62°28' E 006°09'0 0.0
2018-Jun-21 00:29N 62°28' E 006°09'0 0.0
2018-Jun-20 23:59N 62°28' E 006°09'0 0.0
2018-Jun-20 23:30N 62°28' E 006°09'  
2018-Jun-18 14:10N 62°28' E 006°04'2 9.9
2018-Jun-18 14:00N 62°29' E 006°07'5 9.9
2018-Jun-18 13:30N 62°34' E 006°11'810.1
2018-Jun-18 12:39N 62°40' E 006°25'110.0
2018-Jun-18 12:30N 62°41' E 006°27'610.6
2018-Jun-18 11:59N 62°45' E 006°33'510.7
2018-Jun-18 11:30N 62°49' E 006°41'3 6.2
2018-Jun-18 11:00N 62°51' E 006°47'0 1.0
2018-Jun-18 10:30N 62°51' E 006°46'5 9.3
2018-Jun-18 10:00N 62°48' E 006°37'5 9.4
2018-Jun-18 09:30N 62°44' E 006°31'13 9.4
2018-Jun-18 08:04N 62°34' E 006°13'1 9.4
2018-Jun-18 08:00N 62°33' E 006°13'3 5.8
2018-Jun-18 07:30N 62°31' E 006°18'4 7.1
2018-Jun-18 07:00N 62°32' E 006°26'0 0.0
2018-Jun-18 06:30N 62°32' E 006°26'0 0.1
2018-Jun-18 06:00N 62°32' E 006°26'3 5.9
2018-Jun-18 05:30N 62°32' E 006°19'8 6.6
2018-Jun-18 04:17N 62°39' E 006°24'311.2
2018-Jun-18 04:00N 62°42' E 006°28'5 2.1
2018-Jun-18 01:33N 62°47' E 006°28'0 3.2
2018-Jun-18 01:30N 62°47' E 006°28'3 5.6
2018-Jun-18 01:00N 62°47' E 006°35'5 9.5
2018-Jun-18 00:30N 62°50' E 006°43'2 2.0
2018-Jun-17 23:41N 62°51' E 006°47'1 6.9
2018-Jun-17 23:29N 62°50' E 006°44'5 8.3
2018-Jun-17 22:54N 62°47' E 006°37'4 8.7
2018-Jun-17 22:24N 62°42' E 006°39'4 3.4
2018-Jun-17 21:18N 62°39' E 006°43'4 9.7
2018-Jun-17 20:56N 62°42' E 006°39'4 9.8
2018-Jun-17 20:30N 62°46' E 006°40'611.1
2018-Jun-17 20:01N 62°51' E 006°47'0 0.3
2018-Jun-17 19:20N 62°51' E 006°47'3 8.0
2018-Jun-17 19:00N 62°49' E 006°42'4 8.9
2018-Jun-17 18:30N 62°45' E 006°37'16 4.5
2018-Jun-17 15:04N 62°34' E 006°13'110.8
2018-Jun-17 15:00N 62°34' E 006°12'510.8
2018-Jun-17 14:30N 62°29' E 006°08'1 1.4
2018-Jun-17 14:00N 62°28' E 006°07'0 0.0
2018-Jun-17 13:30N 62°28' E 006°07'  
Track history (hours):
 
Tides and Currents Weather Stations Pressure Air Temp Water Temp Dewpoint Dewpoint Depression Visibility Wind Speed Wind Dir Waves Ship Positions

Langsund

Last reported at 2018-Jun-24 15:29 UTC. Time now 2018-Jun-25 05:38 UTC.
Position N 62°29' E 006°05'.

Length 44 m; draft 4.8 m.

Type: . MMSI: 258476000.

Date/timePositionNaut miles runAvg speedWind from/ knotsBaromVisibWave heightAir tempDewpointWater temp
2018-Jun-24 15:29N 62°29' E 006°05'510.4
2018-Jun-24 15:00N 62°33' E 006°10'910.8
2018-Jun-24 14:13N 62°39' E 006°24'411.3
2018-Jun-24 13:51N 62°42' E 006°29'411.1
2018-Jun-24 13:30N 62°46' E 006°34'510.8
2018-Jun-24 13:00N 62°50' E 006°42'2 5.0
2018-Jun-24 12:30N 62°51' E 006°47'1 2.5
2018-Jun-24 12:00N 62°50' E 006°44'5 9.9
2018-Jun-24 11:27N 62°46' E 006°37'4 1.5
2018-Jun-24 08:46N 62°42' E 006°39'310.1
2018-Jun-24 08:30N 62°45' E 006°39'611.3
2018-Jun-24 08:00N 62°50' E 006°45'1 2.6
2018-Jun-24 07:27N 62°51' E 006°47'2 4.3
2018-Jun-24 07:00N 62°50' E 006°43'5 9.5
2018-Jun-24 06:30N 62°46' E 006°37'  
2018-Jun-21 10:36N 62°47' E 006°57'1 8.6
2018-Jun-21 10:30N 62°47' E 006°58'5 9.1
2018-Jun-21 09:59N 62°52' E 006°55'4 8.6
2018-Jun-21 09:31N 62°51' E 006°47'0 0.1
2018-Jun-21 08:59N 62°51' E 006°47'12 8.2
2018-Jun-21 07:28N 62°40' E 006°32'10 2.0
2018-Jun-21 02:18N 62°35' E 006°13'411.0
2018-Jun-21 01:55N 62°31' E 006°09'2 5.8
2018-Jun-21 01:30N 62°28' E 006°09'0 0.0
2018-Jun-21 01:00N 62°28' E 006°09'0 0.0
2018-Jun-21 00:29N 62°28' E 006°09'0 0.0
2018-Jun-20 23:59N 62°28' E 006°09'0 0.0
2018-Jun-20 23:30N 62°28' E 006°09'  
2018-Jun-18 14:10N 62°28' E 006°04'2 9.9
2018-Jun-18 14:00N 62°29' E 006°07'5 9.9
2018-Jun-18 13:30N 62°34' E 006°11'810.1
2018-Jun-18 12:39N 62°40' E 006°25'110.0
2018-Jun-18 12:30N 62°41' E 006°27'610.6
2018-Jun-18 11:59N 62°45' E 006°33'510.7
2018-Jun-18 11:30N 62°49' E 006°41'3 6.2
2018-Jun-18 11:00N 62°51' E 006°47'0 1.0
2018-Jun-18 10:30N 62°51' E 006°46'5 9.3
2018-Jun-18 10:00N 62°48' E 006°37'5 9.4
2018-Jun-18 09:30N 62°44' E 006°31'13 9.4
2018-Jun-18 08:04N 62°34' E 006°13'1 9.4
2018-Jun-18 08:00N 62°33' E 006°13'3 5.8
2018-Jun-18 07:30N 62°31' E 006°18'4 7.1
2018-Jun-18 07:00N 62°32' E 006°26'0 0.0
2018-Jun-18 06:30N 62°32' E 006°26'0 0.1
2018-Jun-18 06:00N 62°32' E 006°26'3 5.9
2018-Jun-18 05:30N 62°32' E 006°19'8 6.6
2018-Jun-18 04:17N 62°39' E 006°24'311.2
2018-Jun-18 04:00N 62°42' E 006°28'5 2.1
2018-Jun-18 01:33N 62°47' E 006°28'0 3.2
2018-Jun-18 01:30N 62°47' E 006°28'3 5.6
2018-Jun-18 01:00N 62°47' E 006°35'5 9.5
2018-Jun-18 00:30N 62°50' E 006°43'2 2.0
2018-Jun-17 23:41N 62°51' E 006°47'1 6.9
2018-Jun-17 23:29N 62°50' E 006°44'5 8.3
2018-Jun-17 22:54N 62°47' E 006°37'4 8.7
2018-Jun-17 22:24N 62°42' E 006°39'4 3.4
2018-Jun-17 21:18N 62°39' E 006°43'4 9.7
2018-Jun-17 20:56N 62°42' E 006°39'4 9.8
2018-Jun-17 20:30N 62°46' E 006°40'611.1
2018-Jun-17 20:01N 62°51' E 006°47'0 0.3
2018-Jun-17 19:20N 62°51' E 006°47'3 8.0
2018-Jun-17 19:00N 62°49' E 006°42'4 8.9
2018-Jun-17 18:30N 62°45' E 006°37'16 4.5
2018-Jun-17 15:04N 62°34' E 006°13'110.8
2018-Jun-17 15:00N 62°34' E 006°12'510.8
2018-Jun-17 14:30N 62°29' E 006°08'1 1.4
2018-Jun-17 14:00N 62°28' E 006°07'0 0.0
2018-Jun-17 13:30N 62°28' E 006°07'  

Dump ship's entire track history